Terminal Aerodrome Forecast
Issued by NWS Charleston, WV

Home | Current Version | Previous Version | Text Only | Print | Product List | Glossary On
Versions: 1 2 3 4 5 6 7 8 9 10 11 12 13 14 15 16 17 18 19 20 21 22
000
FTUS41 KRLX 210500
TAFCRW
TAF
KCRW 210520Z 2106/2206 28007G14KT P6SM BKN040
     FM210800 25006KT P6SM BKN045
     FM211300 24010G15KT P6SM SCT045
     FM211600 24014G24KT P6SM SCT070
     FM220000 25010G15KT P6SM SCT060
     FM220200 23009KT P6SM BKN045=

USA.gov is the U.S. government's official web portal to all federal, state and local government web resources and services.